createdAt,value
2017-01-26T00:00:24.624Z,0
2017-01-26T00:01:33.571Z,0
2017-01-26T00:02:42.519Z,0
2017-01-26T00:03:51.566Z,0
2017-01-26T00:05:00.527Z,0
2017-01-26T00:06:09.572Z,0
2017-01-26T00:07:18.521Z,0
2017-01-26T00:08:27.471Z,0
2017-01-26T00:09:36.427Z,0
2017-01-26T00:10:45.381Z,0
2017-01-26T00:11:54.424Z,0
2017-01-26T00:13:03.378Z,0
2017-01-26T00:14:12.340Z,0
2017-01-26T00:15:21.294Z,0
2017-01-26T00:16:30.250Z,0
2017-01-26T00:17:39.202Z,0
2017-01-26T00:18:48.157Z,0
2017-01-26T00:19:57.111Z,0
2017-01-26T00:21:06.072Z,0
2017-01-26T00:22:15.122Z,0
2017-01-26T00:23:24.081Z,0
2017-01-26T00:24:33.069Z,0
2017-01-26T00:25:42.025Z,0
2017-01-26T00:26:51.068Z,0
2017-01-26T00:28:00.025Z,0
2017-01-26T00:29:09.021Z,0
2017-01-26T00:30:17.978Z,0
2017-01-26T00:31:26.969Z,0
2017-01-26T00:32:35.920Z,0
2017-01-26T00:33:45.049Z,0
2017-01-26T00:34:54.004Z,0
2017-01-26T00:36:02.961Z,0
2017-01-26T00:37:11.917Z,0
2017-01-26T00:38:20.892Z,0
2017-01-26T00:39:29.847Z,0
2017-01-26T00:40:38.805Z,0
2017-01-26T00:41:47.761Z,0
2017-01-26T00:42:56.732Z,0
2017-01-26T00:44:05.682Z,0
2017-01-26T00:45:14.641Z,0
2017-01-26T00:46:23.597Z,0
2017-01-26T00:47:32.641Z,0
2017-01-26T00:48:41.594Z,0
2017-01-26T00:49:50.553Z,0
2017-01-26T00:50:59.505Z,0
2017-01-26T00:52:08.462Z,0
2017-01-26T00:53:17.424Z,0
2017-01-26T00:54:26.406Z,0
2017-01-26T00:55:35.358Z,0
2017-01-26T00:56:44.322Z,0
2017-01-26T00:57:53.273Z,0
2017-01-26T00:59:02.237Z,0
2017-01-26T01:00:11.308Z,0
2017-01-26T01:01:20.290Z,0
2017-01-26T01:02:29.250Z,0
2017-01-26T01:03:38.204Z,0
2017-01-26T01:04:47.155Z,0
2017-01-26T01:05:56.112Z,0
2017-01-26T01:07:05.067Z,0
2017-01-26T01:08:14.024Z,0
2017-01-26T01:09:23.007Z,0
2017-01-26T01:10:31.961Z,0
2017-01-26T01:11:40.919Z,0
2017-01-26T01:12:49.877Z,0
2017-01-26T01:13:58.832Z,0
2017-01-26T01:15:07.790Z,0
2017-01-26T01:16:16.744Z,0
2017-01-26T01:17:25.693Z,0
2017-01-26T01:18:34.643Z,0
2017-01-26T01:19:43.601Z,0
2017-01-26T01:20:52.556Z,0
2017-01-26T01:22:01.513Z,0
2017-01-26T01:23:10.472Z,0
2017-01-26T01:24:19.425Z,0
2017-01-26T01:25:28.375Z,0
2017-01-26T01:26:37.329Z,0
2017-01-26T01:27:46.285Z,0
2017-01-26T01:28:55.334Z,0
2017-01-26T01:30:04.289Z,0
2017-01-26T01:31:13.272Z,0
2017-01-26T01:32:22.225Z,0
2017-01-26T01:33:31.183Z,0
2017-01-26T01:34:40.139Z,0
2017-01-26T01:35:49.117Z,0
2017-01-26T01:36:58.072Z,0
2017-01-26T01:38:07.029Z,0
2017-01-26T01:39:16.103Z,0
2017-01-26T01:40:25.063Z,0
2017-01-26T01:41:34.023Z,0
2017-01-26T01:42:42.979Z,0
2017-01-26T01:43:51.937Z,0
2017-01-26T01:45:00.887Z,0
2017-01-26T01:46:09.897Z,0
2017-01-26T01:47:18.857Z,0
2017-01-26T01:48:28.383Z,0
2017-01-26T01:49:37.406Z,0
2017-01-26T01:50:46.381Z,0
2017-01-26T01:51:56.576Z,0
2017-01-26T01:53:05.865Z,0
2017-01-26T01:54:15.805Z,0
2017-01-26T01:55:25.037Z,0
2017-01-26T01:56:35.332Z,0
2017-01-26T01:57:44.298Z,0
2017-01-26T01:58:54.995Z,0
2017-01-26T02:00:06.329Z,0
2017-01-26T02:01:15.879Z,0
2017-01-26T02:02:27.202Z,0
2017-01-26T02:03:37.631Z,0
2017-01-26T02:04:47.591Z,0
2017-01-26T02:06:01.731Z,0
2017-01-26T02:07:12.496Z,0
2017-01-26T02:08:23.137Z,0
2017-01-26T02:09:34.945Z,0
2017-01-26T02:10:50.123Z,0
2017-01-26T02:12:02.447Z,0
2017-01-26T02:13:12.124Z,0
2017-01-26T02:14:23.300Z,0
2017-01-26T02:15:33.687Z,0
2017-01-26T02:16:42.647Z,0
2017-01-26T02:17:52.613Z,0
2017-01-26T02:19:01.564Z,0
2017-01-26T02:20:10.929Z,0
2017-01-26T02:21:19.883Z,0
2017-01-26T02:22:28.835Z,0
2017-01-26T02:23:37.791Z,0
2017-01-26T02:24:46.745Z,0
2017-01-26T02:25:55.695Z,0
2017-01-26T02:27:04.657Z,0
2017-01-26T02:28:13.616Z,0
2017-01-26T02:29:22.574Z,0
2017-01-26T02:30:31.529Z,0
2017-01-26T02:31:40.489Z,0
2017-01-26T02:32:49.488Z,0
2017-01-26T02:33:58.439Z,0
2017-01-26T02:35:07.392Z,0
2017-01-26T02:36:16.432Z,0
2017-01-26T02:37:25.390Z,0
2017-01-26T02:38:34.343Z,0
2017-01-26T02:39:43.299Z,0
2017-01-26T02:40:52.252Z,0
2017-01-26T02:42:01.212Z,0
2017-01-26T02:43:10.166Z,0
2017-01-26T02:44:19.173Z,0
2017-01-26T02:45:28.148Z,0
2017-01-26T02:46:37.108Z,0
2017-01-26T02:47:46.096Z,0
2017-01-26T02:48:55.052Z,0
2017-01-26T02:50:04.095Z,0
2017-01-26T02:51:13.046Z,0
2017-01-26T02:52:22.011Z,0
2017-01-26T02:53:30.972Z,0
2017-01-26T02:54:39.929Z,0
2017-01-26T02:55:48.876Z,0
2017-01-26T02:56:57.825Z,0
2017-01-26T02:58:06.777Z,0
2017-01-26T02:59:15.732Z,0
2017-01-26T03:00:24.687Z,0
2017-01-26T03:01:33.646Z,0
2017-01-26T03:02:42.601Z,0
2017-01-26T03:03:51.576Z,0
2017-01-26T03:05:00.527Z,0
2017-01-26T03:06:09.891Z,0
2017-01-26T03:07:18.844Z,0
2017-01-26T03:08:27.800Z,0
2017-01-26T03:09:36.748Z,0
2017-01-26T03:10:45.703Z,0
2017-01-26T03:11:54.665Z,0
2017-01-26T03:13:03.622Z,0
2017-01-26T03:14:12.582Z,0
2017-01-26T03:15:21.532Z,0
2017-01-26T03:16:30.489Z,0
2017-01-26T03:17:39.444Z,0
2017-01-26T03:18:48.404Z,0
2017-01-26T03:19:57.361Z,0
2017-01-26T03:21:06.319Z,0
2017-01-26T03:22:15.271Z,0
2017-01-26T03:23:24.229Z,0
2017-01-26T03:24:33.185Z,0
2017-01-26T03:25:42.137Z,0
2017-01-26T03:26:51.095Z,0
2017-01-26T03:28:00.048Z,0
2017-01-26T03:29:08.997Z,0
2017-01-26T03:30:17.953Z,0
2017-01-26T03:31:26.936Z,0
2017-01-26T03:32:35.889Z,0
2017-01-26T03:33:44.844Z,0
2017-01-26T03:34:53.801Z,0
2017-01-26T03:36:02.760Z,0
2017-01-26T03:37:11.724Z,0
2017-01-26T03:38:20.685Z,0
2017-01-26T03:39:29.668Z,0
2017-01-26T03:40:38.618Z,0
2017-01-26T03:41:47.572Z,0
2017-01-26T03:42:56.520Z,0
2017-01-26T03:44:05.477Z,0
2017-01-26T03:45:14.431Z,0
2017-01-26T03:46:23.387Z,0
2017-01-26T03:47:32.338Z,0
2017-01-26T03:48:41.313Z,0
2017-01-26T03:49:50.268Z,0
2017-01-26T03:50:59.221Z,0
2017-01-26T03:52:08.171Z,0
2017-01-26T03:53:17.128Z,0
2017-01-26T03:54:26.081Z,0
2017-01-26T03:55:35.036Z,0
2017-01-26T03:56:43.988Z,0
2017-01-26T03:57:52.942Z,0
2017-01-26T03:59:01.898Z,0
2017-01-26T04:00:10.854Z,0
2017-01-26T04:01:19.812Z,0
2017-01-26T04:02:28.767Z,0
2017-01-26T04:03:37.719Z,0
2017-01-26T04:04:46.672Z,0
2017-01-26T04:05:55.625Z,0
2017-01-26T04:07:04.576Z,0
2017-01-26T04:08:13.532Z,0
2017-01-26T04:09:22.484Z,0
2017-01-26T04:10:31.448Z,0
2017-01-26T04:11:40.407Z,0
2017-01-26T04:12:49.358Z,0
2017-01-26T04:13:58.333Z,0
2017-01-26T04:15:07.283Z,0
2017-01-26T04:16:16.238Z,0
2017-01-26T04:17:25.190Z,0
2017-01-26T04:18:34.142Z,0
2017-01-26T04:19:43.101Z,0
2017-01-26T04:20:52.053Z,0
2017-01-26T04:22:01.008Z,0
2017-01-26T04:23:10.019Z,0
2017-01-26T04:24:18.966Z,0
2017-01-26T04:25:27.918Z,0
2017-01-26T04:26:36.882Z,0
2017-01-26T04:27:45.834Z,0
2017-01-26T04:28:54.784Z,0
2017-01-26T04:30:03.738Z,0
2017-01-26T04:31:12.689Z,0
2017-01-26T04:32:21.672Z,0
2017-01-26T04:33:30.637Z,0
2017-01-26T04:34:39.589Z,0
2017-01-26T04:35:48.546Z,0
2017-01-26T04:36:57.498Z,0
2017-01-26T04:38:06.456Z,0
2017-01-26T04:39:15.412Z,0
2017-01-26T04:40:24.364Z,0
2017-01-26T04:41:33.325Z,0
2017-01-26T04:42:42.274Z,0
2017-01-26T04:43:51.225Z,0
2017-01-26T04:45:00.180Z,0
2017-01-26T04:46:09.221Z,0
2017-01-26T04:47:18.173Z,0
2017-01-26T04:48:27.123Z,0
2017-01-26T04:49:36.075Z,0
2017-01-26T04:50:45.052Z,0
2017-01-26T04:51:54.012Z,0
2017-01-26T04:53:02.969Z,0
2017-01-26T04:54:11.919Z,0
2017-01-26T04:55:20.879Z,0
2017-01-26T04:56:29.827Z,0
2017-01-26T04:57:38.775Z,0
2017-01-26T04:58:47.728Z,0
2017-01-26T04:59:56.681Z,0
2017-01-26T05:01:05.639Z,0
2017-01-26T05:02:14.597Z,0
2017-01-26T05:03:23.550Z,0
2017-01-26T05:04:32.507Z,0
2017-01-26T05:05:41.458Z,0
2017-01-26T05:06:50.413Z,0
2017-01-26T05:07:59.366Z,0
2017-01-26T05:09:08.324Z,0
2017-01-26T05:10:17.275Z,0
2017-01-26T05:11:26.226Z,0
2017-01-26T05:12:35.174Z,0
2017-01-26T05:13:44.129Z,0
2017-01-26T05:14:53.126Z,0
2017-01-26T05:16:02.080Z,0
2017-01-26T05:17:11.034Z,0
2017-01-26T05:18:19.986Z,0
2017-01-26T05:19:28.940Z,0
2017-01-26T05:20:37.895Z,0
2017-01-26T05:21:46.844Z,0
2017-01-26T05:22:55.794Z,0
2017-01-26T05:24:04.746Z,0
2017-01-26T05:25:13.693Z,0
2017-01-26T05:26:22.657Z,0
2017-01-26T05:27:31.614Z,0
2017-01-26T05:28:40.596Z,0
2017-01-26T05:29:49.543Z,0
2017-01-26T05:30:58.498Z,0
2017-01-26T05:32:07.456Z,0
2017-01-26T05:33:16.410Z,0
2017-01-26T05:34:25.362Z,0
2017-01-26T05:35:34.319Z,0
2017-01-26T05:36:43.268Z,0
2017-01-26T05:37:52.225Z,0
2017-01-26T05:39:01.178Z,0
2017-01-26T05:40:10.136Z,0
2017-01-26T05:41:19.084Z,0
2017-01-26T05:42:28.056Z,0
2017-01-26T05:43:37.017Z,0
2017-01-26T05:44:45.972Z,0
2017-01-26T05:45:54.929Z,0
2017-01-26T05:47:03.884Z,0
2017-01-26T05:48:12.926Z,0
2017-01-26T05:49:21.906Z,0
2017-01-26T05:50:30.861Z,0
2017-01-26T05:51:39.817Z,0
2017-01-26T05:52:48.774Z,0
2017-01-26T05:53:57.725Z,0
2017-01-26T05:55:06.674Z,0
2017-01-26T05:56:15.632Z,0
2017-01-26T05:57:24.583Z,0
2017-01-26T05:58:33.536Z,0
2017-01-26T05:59:42.495Z,0
2017-01-26T06:00:51.533Z,0
2017-01-26T06:02:00.486Z,0
2017-01-26T06:03:09.438Z,0
2017-01-26T06:04:18.390Z,0
2017-01-26T06:05:27.343Z,0
2017-01-26T06:06:36.292Z,0
2017-01-26T06:07:45.247Z,0
2017-01-26T06:08:54.233Z,0
2017-01-26T06:10:03.183Z,0
2017-01-26T06:11:12.136Z,0
2017-01-26T06:12:21.087Z,0
2017-01-26T06:13:30.040Z,0
2017-01-26T06:14:38.994Z,0
2017-01-26T06:15:47.942Z,0
2017-01-26T06:16:56.899Z,0
2017-01-26T06:18:05.854Z,0
2017-01-26T06:19:14.806Z,0
2017-01-26T06:20:23.760Z,0
2017-01-26T06:21:32.715Z,0
2017-01-26T06:22:41.694Z,0
2017-01-26T06:23:50.675Z,0
2017-01-26T06:24:59.632Z,0
2017-01-26T06:26:08.590Z,4
2017-01-26T06:27:17.545Z,0
2017-01-26T06:28:26.501Z,0
2017-01-26T06:29:35.458Z,0
2017-01-26T06:30:44.409Z,4
2017-01-26T06:31:53.354Z,0
2017-01-26T06:33:02.304Z,4
2017-01-26T06:34:11.256Z,4
2017-01-26T06:35:20.254Z,4
2017-01-26T06:36:29.213Z,8
2017-01-26T06:37:38.170Z,8
2017-01-26T06:38:47.130Z,8
2017-01-26T06:39:56.090Z,8
2017-01-26T06:41:05.046Z,12
2017-01-26T06:42:14.009Z,12
2017-01-26T06:43:22.965Z,16
2017-01-26T06:44:31.916Z,20
2017-01-26T06:45:40.875Z,20
2017-01-26T06:46:49.830Z,24
2017-01-26T06:47:58.781Z,28
2017-01-26T06:49:07.734Z,32
2017-01-26T06:50:16.690Z,36
2017-01-26T06:51:25.644Z,44
2017-01-26T06:52:34.686Z,48
2017-01-26T06:53:43.641Z,56
2017-01-26T06:54:52.632Z,64
2017-01-26T06:56:01.583Z,72
2017-01-26T06:57:10.540Z,84
2017-01-26T06:58:19.490Z,92
2017-01-26T06:59:28.529Z,100
2017-01-26T07:00:37.479Z,108
2017-01-26T07:01:46.433Z,116
2017-01-26T07:02:55.389Z,128
2017-01-26T07:04:04.348Z,140
2017-01-26T07:05:13.300Z,152
2017-01-26T07:06:22.254Z,168
2017-01-26T07:07:31.205Z,180
2017-01-26T07:08:40.161Z,192
2017-01-26T07:09:49.116Z,208
2017-01-26T07:10:58.073Z,216
2017-01-26T07:12:07.029Z,224
2017-01-26T07:13:15.999Z,236
2017-01-26T07:14:25.386Z,256
2017-01-26T07:15:34.372Z,268
2017-01-26T07:16:43.333Z,256
2017-01-26T07:17:52.306Z,264
2017-01-26T07:19:01.355Z,268
2017-01-26T07:20:10.324Z,276
2017-01-26T07:21:19.279Z,288
2017-01-26T07:22:28.228Z,300
2017-01-26T07:23:37.181Z,324
2017-01-26T07:24:46.133Z,364
2017-01-26T07:25:55.083Z,396
2017-01-26T07:27:04.034Z,384
2017-01-26T07:28:12.985Z,396
2017-01-26T07:29:21.939Z,420
2017-01-26T07:30:30.893Z,424
2017-01-26T07:31:39.851Z,440
2017-01-26T07:32:48.835Z,488
2017-01-26T07:33:57.792Z,496
2017-01-26T07:35:06.760Z,528
2017-01-26T07:36:15.710Z,584
2017-01-26T07:37:24.662Z,616
2017-01-26T07:38:33.620Z,644
2017-01-26T07:39:42.587Z,684
2017-01-26T07:40:51.537Z,684
2017-01-26T07:42:00.494Z,732
2017-01-26T07:43:09.886Z,756
2017-01-26T07:44:18.843Z,732
2017-01-26T07:45:27.798Z,808
2017-01-26T07:46:36.750Z,796
2017-01-26T07:47:45.794Z,780
2017-01-26T07:48:54.838Z,768
2017-01-26T07:50:03.795Z,804
2017-01-26T07:51:12.752Z,792
2017-01-26T07:52:21.723Z,840
2017-01-26T07:53:30.675Z,896
2017-01-26T07:54:39.629Z,892
2017-01-26T07:55:48.581Z,728
2017-01-26T07:56:57.615Z,684
2017-01-26T07:58:06.563Z,696
2017-01-26T07:59:15.516Z,720
2017-01-26T08:00:24.468Z,716
2017-01-26T08:01:33.422Z,736
2017-01-26T08:02:42.399Z,756
2017-01-26T08:03:51.354Z,788
2017-01-26T08:05:00.306Z,852
2017-01-26T08:06:09.282Z,812
2017-01-26T08:07:18.235Z,796
2017-01-26T08:08:27.185Z,792
2017-01-26T08:09:36.134Z,800
2017-01-26T08:10:45.083Z,816
2017-01-26T08:11:54.043Z,824
2017-01-26T08:13:02.996Z,828
2017-01-26T08:14:11.951Z,840
2017-01-26T08:15:20.930Z,852
2017-01-26T08:16:29.884Z,864
2017-01-26T08:17:38.839Z,856
2017-01-26T08:18:47.791Z,868
2017-01-26T08:20:05.486Z,884
2017-01-26T08:21:14.443Z,892
2017-01-26T08:22:23.397Z,896
2017-01-26T08:23:32.354Z,912
2017-01-26T08:24:41.306Z,932
2017-01-26T08:25:50.465Z,952
2017-01-26T08:26:59.419Z,976
2017-01-26T08:28:08.372Z,996
2017-01-26T08:29:17.329Z,1020
2017-01-26T08:30:26.371Z,1036
2017-01-26T08:31:35.325Z,1040
2017-01-26T08:32:44.508Z,1040
2017-01-26T08:33:53.471Z,1028
2017-01-26T08:35:02.428Z,1016
2017-01-26T08:36:11.390Z,1024
2017-01-26T08:37:20.368Z,1012
2017-01-26T08:38:29.323Z,1004
2017-01-26T08:39:38.277Z,996
2017-01-26T08:40:47.233Z,992
2017-01-26T08:41:56.188Z,984
2017-01-26T08:43:05.140Z,992
2017-01-26T08:44:14.184Z,1008
2017-01-26T08:45:23.142Z,1008
2017-01-26T08:46:32.096Z,1020
2017-01-26T08:47:41.053Z,1044
2017-01-26T08:48:52.458Z,1068
2017-01-26T08:50:03.141Z,1064
2017-01-26T08:51:13.005Z,1072
2017-01-26T08:52:22.776Z,1100
2017-01-26T08:53:32.775Z,1100
2017-01-26T08:54:41.876Z,1108
2017-01-26T08:55:51.446Z,1124
2017-01-26T08:57:01.046Z,1112
2017-01-26T08:58:10.597Z,1164
2017-01-26T08:59:20.328Z,1196
2017-01-26T09:00:29.281Z,1156
2017-01-26T09:01:38.868Z,1184
2017-01-26T09:02:49.171Z,1232
2017-01-26T09:04:00.943Z,1220
2017-01-26T09:05:11.659Z,1228
2017-01-26T09:06:21.716Z,1244
2017-01-26T09:07:31.710Z,1440
2017-01-26T09:08:41.660Z,1832
2017-01-26T09:09:50.938Z,1568
2017-01-26T09:11:00.229Z,1584
2017-01-26T09:12:10.976Z,1612
2017-01-26T09:13:21.061Z,1340
2017-01-26T09:14:31.282Z,2028
2017-01-26T09:15:41.607Z,1660
2017-01-26T09:16:51.752Z,2416
2017-01-26T09:18:02.136Z,2064
2017-01-26T09:19:12.505Z,2128
2017-01-26T09:20:22.853Z,2212
2017-01-26T09:21:33.220Z,1764
2017-01-26T09:22:43.639Z,1476
2017-01-26T09:23:53.264Z,1728
2017-01-26T09:25:02.426Z,2028
2017-01-26T09:26:11.415Z,1640
2017-01-26T09:27:20.388Z,1168
2017-01-26T09:28:29.366Z,1220
2017-01-26T09:29:38.347Z,1456
2017-01-26T09:30:47.325Z,1228
2017-01-26T09:31:56.307Z,2108
2017-01-26T09:33:05.284Z,1300
2017-01-26T09:34:14.261Z,1480
2017-01-26T09:35:23.243Z,1056
2017-01-26T09:36:32.224Z,1036
2017-01-26T09:37:41.262Z,1176
2017-01-26T09:38:50.316Z,1052
2017-01-26T09:39:59.269Z,1524
2017-01-26T09:41:08.306Z,1008
2017-01-26T09:42:17.269Z,980
2017-01-26T09:43:26.237Z,944
2017-01-26T09:44:35.202Z,1060
2017-01-26T09:45:44.161Z,1104
2017-01-26T09:46:53.126Z,1092
2017-01-26T09:48:02.122Z,1108
2017-01-26T09:49:11.078Z,1236
2017-01-26T09:50:20.035Z,1256
2017-01-26T09:51:28.989Z,1144
2017-01-26T09:52:37.939Z,1056
2017-01-26T09:53:47.001Z,1048
2017-01-26T09:54:56.043Z,1104
2017-01-26T09:56:05.090Z,1080
2017-01-26T09:57:14.045Z,2700
2017-01-26T09:58:23.006Z,1296
2017-01-26T09:59:31.962Z,1340
2017-01-26T10:00:40.923Z,1264
2017-01-26T10:01:49.965Z,1176
2017-01-26T10:02:58.922Z,1072
2017-01-26T10:04:07.876Z,1004
2017-01-26T10:05:16.838Z,976
2017-01-26T10:06:25.792Z,988
2017-01-26T10:07:34.748Z,1076
2017-01-26T10:08:43.710Z,1044
2017-01-26T10:09:52.668Z,1020
2017-01-26T10:11:01.628Z,1000
2017-01-26T10:12:10.581Z,1052
2017-01-26T10:13:19.548Z,1036
2017-01-26T10:14:28.512Z,1204
2017-01-26T10:15:37.463Z,1156
2017-01-26T10:16:46.415Z,1120
2017-01-26T10:17:55.365Z,1212
2017-01-26T10:19:04.320Z,1224
2017-01-26T10:20:13.278Z,1092
2017-01-26T10:21:22.232Z,1120
2017-01-26T10:22:31.188Z,1156
2017-01-26T10:23:40.148Z,1280
2017-01-26T10:24:49.100Z,1264
2017-01-26T10:25:58.089Z,1304
2017-01-26T10:27:07.044Z,1392
2017-01-26T10:28:15.999Z,1356
2017-01-26T10:29:24.957Z,1344
2017-01-26T10:30:33.920Z,1376
2017-01-26T10:31:43.132Z,1604
2017-01-26T10:32:52.963Z,1492
2017-01-26T10:34:02.682Z,1460
2017-01-26T10:35:14.737Z,1480
2017-01-26T10:36:24.821Z,1572
2017-01-26T10:37:33.775Z,1508
2017-01-26T10:38:42.738Z,1740
2017-01-26T10:39:51.690Z,1872
2017-01-26T10:41:00.647Z,2536
2017-01-26T10:42:09.607Z,2228
2017-01-26T10:43:18.575Z,2420
2017-01-26T10:44:27.619Z,1776
2017-01-26T10:45:36.573Z,2068
2017-01-26T10:46:45.535Z,1696
2017-01-26T10:47:54.506Z,1688
2017-01-26T10:49:03.465Z,1868
2017-01-26T10:50:12.420Z,1624
2017-01-26T10:51:21.373Z,1636
2017-01-26T10:52:30.328Z,1908
2017-01-26T10:53:39.281Z,1888
2017-01-26T10:54:48.235Z,1784
2017-01-26T10:55:57.195Z,2452
2017-01-26T10:57:06.149Z,2036
2017-01-26T10:58:15.200Z,1624
2017-01-26T10:59:24.157Z,1752
2017-01-26T11:00:33.108Z,1788
2017-01-26T11:01:42.060Z,1544
2017-01-26T11:02:51.022Z,1600
2017-01-26T11:03:59.984Z,1620
2017-01-26T11:05:08.940Z,1640
2017-01-26T11:06:17.896Z,1736
2017-01-26T11:07:26.856Z,1560
2017-01-26T11:08:36.514Z,1568
2017-01-26T11:09:46.171Z,1680
2017-01-26T11:10:55.633Z,1736
2017-01-26T11:12:05.364Z,1932
2017-01-26T11:13:15.061Z,1848
2017-01-26T11:14:24.872Z,1740
2017-01-26T11:15:34.554Z,2080
2017-01-26T11:16:44.219Z,2608
2017-01-26T11:17:53.626Z,2108
2017-01-26T11:19:04.374Z,2440
2017-01-26T11:20:14.120Z,2672
2017-01-26T11:21:23.793Z,3632
2017-01-26T11:22:33.381Z,2356
2017-01-26T11:23:43.606Z,2980
2017-01-26T11:24:53.893Z,3388
2017-01-26T11:26:03.821Z,2856
2017-01-26T11:27:13.089Z,3024
2017-01-26T11:28:22.366Z,3420
2017-01-26T11:29:31.326Z,3072
2017-01-26T11:30:40.367Z,2724
2017-01-26T11:31:49.318Z,2712
2017-01-26T11:32:58.273Z,2744
2017-01-26T11:34:07.233Z,2508
2017-01-26T11:35:16.196Z,3348
2017-01-26T11:36:25.156Z,2252
2017-01-26T11:37:34.111Z,2332
2017-01-26T11:38:43.075Z,2788
2017-01-26T11:39:55.130Z,3044
2017-01-26T11:41:04.087Z,3028
2017-01-26T11:42:13.043Z,3368
2017-01-26T11:43:22.007Z,3336
2017-01-26T11:44:30.958Z,3456
2017-01-26T11:45:39.914Z,3272
2017-01-26T11:46:48.874Z,3472
2017-01-26T11:47:57.915Z,3480
2017-01-26T11:49:06.868Z,3572
2017-01-26T11:50:15.831Z,3280
2017-01-26T11:51:24.784Z,2448
2017-01-26T11:52:33.742Z,2540
2017-01-26T11:53:42.705Z,2824
2017-01-26T11:54:51.664Z,3248
2017-01-26T11:56:00.623Z,3492
2017-01-26T11:57:09.583Z,2968
2017-01-26T11:58:18.938Z,2492
2017-01-26T11:59:28.489Z,2920
2017-01-26T12:00:38.457Z,3124
2017-01-26T12:01:47.746Z,3256
2017-01-26T12:02:57.212Z,3348
2017-01-26T12:04:06.429Z,3692
2017-01-26T12:05:16.005Z,3756
2017-01-26T12:06:26.112Z,3824
2017-01-26T12:07:35.680Z,3496
2017-01-26T12:08:45.525Z,3640
2017-01-26T12:09:55.243Z,3340
2017-01-26T12:11:04.511Z,3476
2017-01-26T12:12:13.959Z,3432
2017-01-26T12:13:24.173Z,3232
2017-01-26T12:14:34.230Z,3184
2017-01-26T12:15:44.502Z,3404
2017-01-26T12:16:54.184Z,3544
2017-01-26T12:18:03.811Z,3452
2017-01-26T12:19:13.080Z,3056
2017-01-26T12:20:23.338Z,2844
2017-01-26T12:21:32.321Z,2552
2017-01-26T12:22:41.448Z,2312
2017-01-26T12:23:50.844Z,2188
2017-01-26T12:24:59.801Z,2172
2017-01-26T12:26:09.506Z,2260
2017-01-26T12:27:21.306Z,2432
2017-01-26T12:28:43.373Z,2224
2017-01-26T12:30:02.264Z,2176
2017-01-26T12:31:14.698Z,1964
2017-01-26T12:32:23.660Z,2008
2017-01-26T12:33:32.710Z,2008
2017-01-26T12:34:41.664Z,1900
2017-01-26T12:35:50.617Z,1860
2017-01-26T12:36:59.581Z,2108
2017-01-26T12:38:08.540Z,2056
2017-01-26T12:39:17.509Z,1904
2017-01-26T12:40:26.469Z,1892
2017-01-26T12:41:35.432Z,1840
2017-01-26T12:42:44.437Z,1832
2017-01-26T12:43:53.401Z,1828
2017-01-26T12:45:02.354Z,1856
2017-01-26T12:46:11.317Z,1868
2017-01-26T12:47:20.278Z,1832
2017-01-26T12:48:29.237Z,1844
2017-01-26T12:49:38.196Z,1824
2017-01-26T12:50:47.165Z,1784
2017-01-26T12:51:56.129Z,1764
2017-01-26T12:53:05.175Z,1752
2017-01-26T12:54:14.169Z,1728
2017-01-26T12:55:23.153Z,1716
2017-01-26T12:56:32.116Z,1728
2017-01-26T12:57:41.076Z,1544
2017-01-26T12:58:50.037Z,1672
2017-01-26T12:59:59.023Z,1664
2017-01-26T13:01:07.991Z,1656
2017-01-26T13:02:16.956Z,1620
2017-01-26T13:03:25.916Z,1604
2017-01-26T13:04:34.874Z,1580
2017-01-26T13:05:43.834Z,1528
2017-01-26T13:06:52.796Z,1496
2017-01-26T13:08:01.751Z,1480
2017-01-26T13:09:10.703Z,1444
2017-01-26T13:10:19.673Z,1416
2017-01-26T13:11:28.629Z,1392
2017-01-26T13:12:37.588Z,1396
2017-01-26T13:13:46.550Z,1364
2017-01-26T13:14:55.505Z,1304
2017-01-26T13:16:04.462Z,1296
2017-01-26T13:17:13.505Z,1292
2017-01-26T13:18:22.478Z,1268
2017-01-26T13:19:31.435Z,1252
2017-01-26T13:20:40.431Z,1232
2017-01-26T13:21:49.391Z,1208
2017-01-26T13:22:58.343Z,1200
2017-01-26T13:24:07.305Z,1192
2017-01-26T13:25:16.261Z,1180
2017-01-26T13:26:25.220Z,1168
2017-01-26T13:27:34.169Z,1148
2017-01-26T13:28:43.122Z,1136
2017-01-26T13:29:52.073Z,1124
2017-01-26T13:31:01.066Z,1100
2017-01-26T13:32:10.019Z,1096
2017-01-26T13:33:18.983Z,1092
2017-01-26T13:34:27.944Z,1088
2017-01-26T13:35:36.903Z,1076
2017-01-26T13:36:45.942Z,1072
2017-01-26T13:37:54.895Z,1068
2017-01-26T13:39:03.945Z,1056
2017-01-26T13:40:13.308Z,1052
2017-01-26T13:41:22.267Z,1044
2017-01-26T13:42:32.219Z,1032
2017-01-26T13:43:41.824Z,1028
2017-01-26T13:44:50.778Z,1024
2017-01-26T13:45:59.745Z,1012
2017-01-26T13:47:09.038Z,1008
2017-01-26T13:48:18.927Z,1008
2017-01-26T13:49:27.883Z,1008
2017-01-26T13:50:36.973Z,1008
2017-01-26T13:51:46.375Z,1004
2017-01-26T13:52:56.049Z,1004
2017-01-26T13:54:05.107Z,1008
2017-01-26T13:55:14.131Z,1008
2017-01-26T13:56:23.492Z,1020
2017-01-26T13:57:34.090Z,1024
2017-01-26T13:58:43.338Z,1032
2017-01-26T13:59:52.383Z,1036
2017-01-26T14:01:01.344Z,1044
2017-01-26T14:02:10.301Z,1048
2017-01-26T14:03:19.355Z,1044
2017-01-26T14:04:29.743Z,1036
2017-01-26T14:05:42.122Z,1020
2017-01-26T14:06:53.693Z,1004
2017-01-26T14:08:03.471Z,976
2017-01-26T14:09:22.527Z,948
2017-01-26T14:10:33.481Z,920
2017-01-26T14:11:43.861Z,892
2017-01-26T14:12:54.735Z,872
2017-01-26T14:14:06.995Z,852
2017-01-26T14:15:16.306Z,840
2017-01-26T14:16:25.267Z,828
2017-01-26T14:17:34.217Z,820
2017-01-26T14:18:43.170Z,780
2017-01-26T14:19:52.121Z,756
2017-01-26T14:21:01.077Z,716
2017-01-26T14:22:10.030Z,740
2017-01-26T14:23:19.159Z,716
2017-01-26T14:24:28.151Z,704
2017-01-26T14:25:37.109Z,692
2017-01-26T14:26:46.060Z,672
2017-01-26T14:27:55.019Z,660
2017-01-26T14:29:04.016Z,656
2017-01-26T14:30:12.972Z,648
2017-01-26T14:31:22.018Z,648
2017-01-26T14:32:30.972Z,660
2017-01-26T14:33:39.926Z,652
2017-01-26T14:34:48.886Z,652
2017-01-26T14:35:57.845Z,668
2017-01-26T14:37:07.208Z,708
2017-01-26T14:38:16.157Z,708
2017-01-26T14:39:25.196Z,660
2017-01-26T14:40:34.151Z,612
2017-01-26T14:41:43.102Z,592
2017-01-26T14:42:52.057Z,592
2017-01-26T14:44:01.015Z,656
2017-01-26T14:45:09.977Z,640
2017-01-26T14:46:18.935Z,596
2017-01-26T14:47:27.893Z,576
2017-01-26T14:48:36.849Z,628
2017-01-26T14:49:45.665Z,652
2017-01-26T14:50:54.666Z,640
2017-01-26T14:52:03.621Z,584
2017-01-26T14:53:12.576Z,576
2017-01-26T14:54:21.539Z,544
2017-01-26T14:55:30.583Z,544
2017-01-26T14:56:39.531Z,520
2017-01-26T14:57:48.487Z,532
2017-01-26T14:58:57.444Z,496
2017-01-26T15:00:06.837Z,476
2017-01-26T15:01:15.878Z,464
2017-01-26T15:02:24.842Z,448
2017-01-26T15:03:33.791Z,436
2017-01-26T15:04:42.828Z,420
2017-01-26T15:05:51.779Z,404
2017-01-26T15:07:00.731Z,392
2017-01-26T15:08:09.693Z,376
2017-01-26T15:09:18.645Z,360
2017-01-26T15:10:27.599Z,348
2017-01-26T15:11:36.639Z,332
2017-01-26T15:12:46.012Z,316
2017-01-26T15:13:54.964Z,304
2017-01-26T15:15:04.017Z,292
2017-01-26T15:16:13.374Z,284
2017-01-26T15:17:22.785Z,272
2017-01-26T15:18:32.091Z,260
2017-01-26T15:19:42.627Z,256
2017-01-26T15:20:52.289Z,244
2017-01-26T15:22:10.954Z,236
2017-01-26T15:23:21.034Z,220
2017-01-26T15:24:30.020Z,208
2017-01-26T15:25:39.321Z,196
2017-01-26T15:26:48.594Z,184
2017-01-26T15:27:58.560Z,172
2017-01-26T15:29:08.665Z,164
2017-01-26T15:30:20.451Z,148
2017-01-26T15:31:33.397Z,140
2017-01-26T15:32:44.194Z,124
2017-01-26T15:33:54.513Z,112
2017-01-26T15:35:04.182Z,104
2017-01-26T15:36:13.857Z,100
2017-01-26T15:37:23.262Z,88
2017-01-26T15:38:35.498Z,84
2017-01-26T15:39:46.643Z,76
2017-01-26T15:40:57.259Z,76
2017-01-26T15:42:09.547Z,72
2017-01-26T15:43:22.001Z,64
2017-01-26T15:44:32.705Z,60
2017-01-26T15:45:43.709Z,52
2017-01-26T15:46:54.487Z,48
2017-01-26T15:48:05.429Z,40
2017-01-26T15:49:16.509Z,36
2017-01-26T15:50:28.864Z,28
2017-01-26T15:51:40.856Z,28
2017-01-26T15:52:51.523Z,24
2017-01-26T15:54:01.126Z,20
2017-01-26T15:55:11.422Z,20
2017-01-26T15:56:20.750Z,12
2017-01-26T15:57:30.675Z,12
2017-01-26T15:58:39.994Z,12
2017-01-26T15:59:50.170Z,8
2017-01-26T16:01:00.815Z,8
2017-01-26T16:02:10.814Z,8
2017-01-26T16:03:21.113Z,8
2017-01-26T16:04:31.525Z,4
2017-01-26T16:05:41.236Z,4
2017-01-26T16:06:50.274Z,4
2017-01-26T16:07:59.232Z,0
2017-01-26T16:09:08.219Z,4
2017-01-26T16:10:17.170Z,0
2017-01-26T16:11:26.563Z,0
2017-01-26T16:12:35.927Z,4